Time;durP1;ratioP1;P1;durP2;ratioP2;P2;SDS_P1;SDS_P2;PMS_P1;PMS_P2;Temp;Humidity;BMP_temperature;BMP_pressure;BME280_temperature;BME280_humidity;BME280_pressure;Samples;Min_cycle;Max_cycle;Signal;HPM_P1;HPM_P2
2021/12/03 00:00:26;;;;;;;22.40;3.60;;;3.10;94.10;;;;;;5000735;28;37656;-55
2021/12/03 00:02:54;;;;;;;4.93;0.80;;;3.10;94.20;;;;;;5002560;28;37496;-55
2021/12/03 00:05:22;;;;;;;4.22;0.80;;;3.10;94.20;;;;;;5001614;28;37660;-58
2021/12/03 00:07:50;;;;;;;3.55;0.98;;;3.20;94.20;;;;;;5003283;28;37246;-59
2021/12/03 00:10:22;;;;;;;5.03;0.80;;;3.20;94.20;;;;;;5000857;28;38504;-58
2021/12/03 00:12:51;;;;;;;4.22;0.90;;;3.10;94.20;;;;;;5003107;28;35317;-59
2021/12/03 00:15:20;;;;;;;4.03;0.98;;;3.20;94.20;;;;;;5002340;28;36309;-55
2021/12/03 00:17:47;;;;;;;6.00;1.20;;;3.10;94.10;;;;;;5002438;28;38671;-55
2021/12/03 00:20:16;;;;;;;5.32;1.05;;;3.10;94.10;;;;;;5002149;28;39652;-55
2021/12/03 00:22:44;;;;;;;4.80;0.90;;;3.10;94.20;;;;;;5001610;28;35330;-55
2021/12/03 00:25:11;;;;;;;4.35;0.93;;;3.10;94.10;;;;;;5002127;28;37628;-55
2021/12/03 00:27:40;;;;;;;4.57;1.20;;;3.10;94.20;;;;;;5002669;28;39592;-55
2021/12/03 00:30:12;;;;;;;4.32;1.05;;;3.10;94.20;;;;;;5002131;28;39051;-55
2021/12/03 00:32:40;;;;;;;2.53;1.00;;;3.10;94.20;;;;;;5001551;28;36957;-56
2021/12/03 00:35:09;;;;;;;8.18;1.67;;;3.10;94.20;;;;;;5001614;28;38396;-55
2021/12/03 00:37:37;;;;;;;6.72;1.42;;;3.00;94.20;;;;;;5001953;28;38251;-55
2021/12/03 00:40:07;;;;;;;6.13;1.30;;;3.00;94.30;;;;;;5002006;28;38169;-55
2021/12/03 00:42:35;;;;;;;5.10;1.52;;;3.00;94.30;;;;;;5001876;28;36849;-55
2021/12/03 00:45:03;;;;;;;12.40;1.95;;;3.00;94.40;;;;;;5001852;28;40165;-55
2021/12/03 00:47:32;;;;;;;4.68;1.30;;;2.90;94.50;;;;;;5001221;28;37730;-58
2021/12/03 00:49:59;;;;;;;3.78;1.20;;;2.90;94.60;;;;;;5001483;28;38643;-59
2021/12/03 00:52:26;;;;;;;3.40;1.25;;;2.90;94.60;;;;;;5002525;28;36308;-58
2021/12/03 00:54:54;;;;;;;5.30;1.42;;;2.90;94.60;;;;;;5001751;28;36342;-58
2021/12/03 00:57:21;;;;;;;4.82;1.65;;;2.90;94.60;;;;;;5000749;28;39466;-56
2021/12/03 00:59:49;;;;;;;6.20;1.88;;;2.90;94.70;;;;;;5001723;28;39091;-55
2021/12/03 01:02:17;;;;;;;8.32;1.52;;;2.80;94.70;;;;;;5001907;28;36118;-55
2021/12/03 01:04:46;;;;;;;5.55;1.50;;;2.80;94.70;;;;;;5000813;28;36331;-58
2021/12/03 01:07:14;;;;;;;6.47;2.03;;;2.80;94.80;;;;;;5001211;28;39092;-59
2021/12/03 01:09:42;;;;;;;5.88;1.70;;;2.80;94.80;;;;;;4998689;28;35632;-58
2021/12/03 01:12:10;;;;;;;3.22;1.20;;;2.80;94.80;;;;;;5001642;28;37351;-59
2021/12/03 01:14:39;;;;;;;4.93;1.20;;;2.70;94.80;;;;;;5000626;28;37421;-59
2021/12/03 01:17:06;;;;;;;3.97;1.20;;;2.70;95.20;;;;;;5001964;28;37756;-58
2021/12/03 01:19:34;;;;;;;5.15;1.60;;;2.70;95.00;;;;;;5001049;28;37603;-58
2021/12/03 01:22:04;;;;;;;6.28;1.52;;;2.70;95.00;;;;;;5001705;28;36928;-58
2021/12/03 01:24:31;;;;;;;5.38;1.20;;;2.70;95.00;;;;;;5000776;28;37662;-58
2021/12/03 01:26:59;;;;;;;4.95;1.30;;;2.70;95.00;;;;;;5001474;28;38091;-59
2021/12/03 01:29:27;;;;;;;4.88;1.48;;;2.70;95.00;;;;;;4999935;28;36707;-58
2021/12/03 01:31:54;;;;;;;4.95;1.20;;;2.80;95.00;;;;;;5002480;28;36831;-58
2021/12/03 01:34:22;;;;;;;4.68;0.90;;;2.70;95.10;;;;;;5000107;28;37561;-58
2021/12/03 01:36:50;;;;;;;5.63;1.58;;;2.70;95.10;;;;;;5001771;28;39015;-58
2021/12/03 01:39:18;;;;;;;4.25;1.38;;;2.80;95.00;;;;;;4999759;28;36582;-58
2021/12/03 01:41:46;;;;;;;4.40;1.42;;;2.70;95.00;;;;;;5000776;28;35364;-58
2021/12/03 01:44:13;;;;;;;6.05;1.25;;;2.80;95.10;;;;;;5000872;28;38458;-58
2021/12/03 01:46:41;;;;;;;7.38;1.52;;;2.80;95.20;;;;;;5001229;28;39039;-55
2021/12/03 01:49:10;;;;;;;6.30;1.30;;;2.70;95.20;;;;;;5000485;28;36836;-55
2021/12/03 01:51:38;;;;;;;7.50;1.45;;;2.80;95.20;;;;;;5000539;28;37015;-55
2021/12/03 01:54:05;;;;;;;6.65;1.10;;;2.80;95.20;;;;;;5000170;28;36358;-55
2021/12/03 01:56:34;;;;;;;5.68;1.38;;;2.80;95.20;;;;;;5001231;28;38415;-55
2021/12/03 01:59:01;;;;;;;6.15;1.42;;;2.80;95.20;;;;;;5002616;28;40137;-55
2021/12/03 02:01:29;;;;;;;6.68;1.38;;;2.80;95.20;;;;;;5003291;28;37306;-55
2021/12/03 02:04:00;;;;;;;5.25;1.23;;;2.80;95.10;;;;;;5003053;28;38264;-55
2021/12/03 02:06:29;;;;;;;3.33;1.02;;;2.80;95.20;;;;;;5002858;28;38288;-55
2021/12/03 02:08:57;;;;;;;5.20;1.10;;;2.80;95.20;;;;;;5005002;28;36609;-59
2021/12/03 02:11:25;;;;;;;7.43;1.73;;;2.80;95.20;;;;;;5001851;28;36803;-58
2021/12/03 02:13:54;;;;;;;3.95;1.20;;;2.80;95.20;;;;;;5004364;28;36180;-59
2021/12/03 02:16:22;;;;;;;2.55;1.10;;;2.80;95.20;;;;;;5003217;28;39039;-58
2021/12/03 02:18:50;;;;;;;4.13;0.93;;;2.80;95.20;;;;;;5003212;28;38179;-55
2021/12/03 02:21:21;;;;;;;7.30;1.30;;;2.80;95.20;;;;;;5003691;28;35335;-55
2021/12/03 02:23:48;;;;;;;5.40;1.08;;;2.90;95.20;;;;;;5002699;28;37599;-55
2021/12/03 02:26:16;;;;;;;3.85;1.00;;;2.90;95.30;;;;;;5002854;28;38362;-55
2021/12/03 02:28:46;;;;;;;4.95;1.20;;;2.90;95.20;;;;;;5004355;28;36498;-55
2021/12/03 02:31:16;;;;;;;2.95;0.98;;;2.90;95.30;;;;;;5003256;28;36359;-55
2021/12/03 02:33:43;;;;;;;6.25;1.20;;;3.00;95.30;;;;;;5004140;28;37660;-55
2021/12/03 02:36:11;;;;;;;2.90;1.10;;;2.90;95.30;;;;;;5002820;28;38775;-55
2021/12/03 02:38:40;;;;;;;5.43;1.20;;;3.00;95.30;;;;;;5003690;28;38759;-55
2021/12/03 02:41:08;;;;;;;4.22;1.27;;;3.00;95.30;;;;;;5003712;28;36499;-55
2021/12/03 02:43:36;;;;;;;6.72;1.23;;;3.00;95.30;;;;;;5003642;28;38046;-55
2021/12/03 02:46:03;;;;;;;5.20;0.95;;;3.00;95.40;;;;;;5003583;28;38034;-55
2021/12/03 02:48:34;;;;;;;3.42;1.05;;;2.90;95.30;;;;;;5003070;28;38036;-55
2021/12/03 02:51:03;;;;;;;3.20;0.90;;;2.90;95.40;;;;;;5003497;28;36666;-55
2021/12/03 02:53:30;;;;;;;3.75;1.10;;;2.90;95.40;;;;;;5002098;28;39269;-55
2021/12/03 02:55:59;;;;;;;5.95;0.93;;;3.00;95.50;;;;;;5003665;28;38295;-55
2021/12/03 02:58:27;;;;;;;6.60;1.58;;;3.00;95.40;;;;;;5002768;28;37195;-55
2021/12/03 03:00:55;;;;;;;5.68;1.40;;;3.00;95.40;;;;;;5002702;28;36689;-55
2021/12/03 03:03:23;;;;;;;6.97;1.42;;;3.00;95.50;;;;;;5002091;28;37312;-55
2021/12/03 03:05:54;;;;;;;6.90;1.35;;;3.00;95.40;;;;;;5003752;28;38414;-55
2021/12/03 03:08:21;;;;;;;7.85;1.67;;;2.90;95.50;;;;;;5004040;28;37933;-55
2021/12/03 03:10:49;;;;;;;6.55;2.15;;;2.90;95.60;;;;;;5001889;28;36567;-55
2021/12/03 03:13:17;;;;;;;9.15;2.28;;;3.00;95.60;;;;;;5002624;28;36388;-56
2021/12/03 03:15:45;;;;;;;8.13;2.28;;;3.00;95.70;;;;;;5003108;28;36925;-55
2021/12/03 03:18:14;;;;;;;9.60;2.42;;;3.00;95.70;;;;;;5003518;28;39929;-55
2021/12/03 03:20:44;;;;;;;7.50;2.80;;;2.90;95.70;;;;;;5002538;28;35242;-55
2021/12/03 03:23:13;;;;;;;8.68;3.33;;;3.00;95.70;;;;;;5003464;28;38098;-55
2021/12/03 03:25:41;;;;;;;8.98;2.78;;;3.00;95.80;;;;;;5002264;28;39842;-55
2021/12/03 03:28:10;;;;;;;7.07;3.60;;;3.00;95.80;;;;;;5003328;28;39313;-54
2021/12/03 03:30:40;;;;;;;10.43;3.75;;;3.00;95.90;;;;;;5002748;28;37079;-58
2021/12/03 03:33:08;;;;;;;11.52;3.58;;;3.00;95.90;;;;;;5003019;28;38951;-57
2021/12/03 03:35:36;;;;;;;12.40;4.82;;;3.00;95.90;;;;;;5002768;28;37851;-54
2021/12/03 03:38:04;;;;;;;13.25;5.10;;;3.00;95.90;;;;;;5003408;28;37906;-55
2021/12/03 03:40:32;;;;;;;12.30;5.43;;;3.00;95.90;;;;;;5002994;28;37960;-58
2021/12/03 03:42:59;;;;;;;11.13;6.40;;;3.00;96.00;;;;;;5001769;28;37592;-58
2021/12/03 03:45:28;;;;;;;16.10;6.60;;;3.00;96.00;;;;;;5002887;28;38937;-58
2021/12/03 03:47:57;;;;;;;11.55;6.45;;;3.00;96.00;;;;;;5002820;28;38989;-55
2021/12/03 03:50:25;;;;;;;13.35;8.18;;;3.00;96.00;;;;;;5003368;28;36280;-55
2021/12/03 03:52:54;;;;;;;14.32;8.85;;;3.00;96.10;;;;;;5002392;28;37619;-55
2021/12/03 03:55:23;;;;;;;16.63;10.25;;;3.00;96.10;;;;;;5002363;28;40296;-55
2021/12/03 03:57:53;;;;;;;15.63;10.05;;;3.10;96.10;;;;;;5001660;28;39860;-55
2021/12/03 04:00:25;;;;;;;16.40;10.60;;;3.00;96.10;;;;;;5001065;28;37350;-55
2021/12/03 04:02:53;;;;;;;16.65;10.73;;;3.00;96.40;;;;;;5001464;28;38490;-58
2021/12/03 04:05:21;;;;;;;18.05;10.95;;;3.00;96.10;;;;;;5001147;28;37016;-57
2021/12/03 04:07:49;;;;;;;20.27;11.27;;;3.10;96.20;;;;;;5002649;28;37966;-58
2021/12/03 04:10:16;;;;;;;18.17;11.57;;;3.00;96.20;;;;;;5001485;28;36941;-58
2021/12/03 04:12:44;;;;;;;15.68;11.07;;;3.10;96.30;;;;;;5001535;28;37655;-57
2021/12/03 04:15:12;;;;;;;18.23;11.43;;;3.10;96.30;;;;;;5001225;28;39589;-58
2021/12/03 04:17:41;;;;;;;19.27;11.43;;;3.10;96.30;;;;;;5002109;28;37640;-58
2021/12/03 04:20:11;;;;;;;21.98;12.43;;;3.10;96.30;;;;;;5001006;28;35547;-58
2021/12/03 04:22:41;;;;;;;17.92;11.73;;;3.10;96.30;;;;;;5000939;28;40166;-55
2021/12/03 04:25:12;;;;;;;15.82;12.02;;;3.00;96.30;;;;;;5002313;28;38683;-55
2021/12/03 04:27:39;;;;;;;21.52;12.07;;;3.10;96.30;;;;;;5002332;28;38776;-55
2021/12/03 04:30:11;;;;;;;21.77;12.20;;;3.10;96.20;;;;;;5001292;28;36511;-55
2021/12/03 04:32:40;;;;;;;18.63;11.15;;;3.00;96.20;;;;;;5001818;28;37618;-55
2021/12/03 04:35:08;;;;;;;16.10;11.05;;;3.10;96.20;;;;;;5001135;28;39395;-55
2021/12/03 04:37:36;;;;;;;15.88;10.50;;;3.00;96.20;;;;;;5001655;28;37246;-55
2021/12/03 04:40:09;;;;;;;17.80;10.85;;;3.00;96.20;;;;;;5000852;28;36744;-55
2021/12/03 04:42:36;;;;;;;18.67;11.20;;;3.00;96.20;;;;;;5001714;28;36397;-55
2021/12/03 04:45:06;;;;;;;17.92;10.80;;;3.00;96.30;;;;;;5000799;28;38180;-55
2021/12/03 04:47:33;;;;;;;17.77;11.05;;;3.00;96.20;;;;;;5001310;28;37812;-55
2021/12/03 04:50:01;;;;;;;14.90;9.95;;;2.90;96.20;;;;;;5000207;28;37474;-58
2021/12/03 04:52:28;;;;;;;13.75;9.80;;;3.00;96.20;;;;;;5002297;28;38179;-58
2021/12/03 04:54:55;;;;;;;13.85;10.20;;;3.40;96.30;;;;;;5000137;28;40651;-58
2021/12/03 04:57:24;;;;;;;17.40;10.43;;;2.90;96.20;;;;;;5001215;28;40460;-58
2021/12/03 04:59:51;;;;;;;13.52;9.52;;;2.90;96.20;;;;;;5000592;28;37020;-58
2021/12/03 05:02:20;;;;;;;14.45;10.57;;;2.90;96.10;;;;;;5000675;28;38316;-58
2021/12/03 05:04:49;;;;;;;14.68;10.18;;;2.90;96.10;;;;;;5000256;28;38384;-59
2021/12/03 05:07:28;;;;;;;16.67;10.00;;;2.90;96.20;;;;;;5001590;28;39253;-59
2021/12/03 05:09:55;;;;;;;17.00;9.90;;;2.90;96.20;;;;;;5000747;28;38417;-58
2021/12/03 05:12:25;;;;;;;12.20;9.40;;;3.40;96.40;;;;;;5001391;28;37745;-58
2021/12/03 05:14:52;;;;;;;23.17;10.95;;;2.90;96.20;;;;;;5001077;28;39803;-59
2021/12/03 05:17:19;;;;;;;15.57;10.80;;;2.90;96.20;;;;;;5001154;28;37916;-55
2021/12/03 05:19:47;;;;;;;17.10;11.13;;;2.90;96.30;;;;;;5000666;28;35640;-55
2021/12/03 05:22:15;;;;;;;14.93;9.98;;;2.90;96.30;;;;;;5001552;28;37569;-55
2021/12/03 05:24:45;;;;;;;17.83;9.98;;;2.90;96.20;;;;;;5000629;28;38143;-55
2021/12/03 05:27:13;;;;;;;14.30;9.55;;;2.90;96.20;;;;;;5001691;28;36695;-55
2021/12/03 05:29:42;;;;;;;15.27;9.70;;;2.90;96.20;;;;;;5000368;28;35455;-55
2021/12/03 05:32:11;;;;;;;18.67;10.25;;;2.90;96.20;;;;;;5001544;28;38825;-55
2021/12/03 05:34:38;;;;;;;14.55;9.13;;;2.90;96.20;;;;;;5003027;28;37433;-55
2021/12/03 05:37:06;;;;;;;14.40;9.38;;;2.90;96.30;;;;;;5004199;28;37668;-55
2021/12/03 05:39:34;;;;;;;16.95;8.68;;;2.90;96.30;;;;;;5004001;28;37446;-55
2021/12/03 05:42:02;;;;;;;17.10;8.68;;;2.90;96.20;;;;;;5005079;28;37750;-55
2021/12/03 05:44:30;;;;;;;13.82;9.20;;;3.00;96.20;;;;;;5004129;28;38231;-55
2021/12/03 05:47:00;;;;;;;13.60;8.30;;;2.90;96.10;;;;;;5004772;28;38008;-55
2021/12/03 05:49:28;;;;;;;15.52;8.90;;;3.00;96.10;;;;;;5004125;28;36511;-56
2021/12/03 05:51:56;;;;;;;12.82;8.30;;;2.90;96.10;;;;;;5004219;28;38488;-55
2021/12/03 05:54:26;;;;;;;14.15;9.30;;;2.90;96.00;;;;;;5003947;28;38288;-56
2021/12/03 05:56:54;;;;;;;13.27;8.60;;;2.90;96.00;;;;;;5003228;28;36531;-55
2021/12/03 05:59:21;;;;;;;14.00;8.98;;;2.90;96.00;;;;;;5004352;28;37137;-55
2021/12/03 06:01:48;;;;;;;15.85;9.45;;;2.90;96.00;;;;;;5002726;28;38740;-55
2021/12/03 06:04:17;;;;;;;14.27;8.88;;;2.90;96.00;;;;;;5004125;28;38165;-55
2021/12/03 06:06:45;;;;;;;13.35;9.10;;;2.90;96.00;;;;;;5002766;28;36513;-55
2021/12/03 06:09:12;;;;;;;12.38;8.98;;;2.90;96.10;;;;;;5004229;28;39534;-58
2021/12/03 06:11:40;;;;;;;17.80;9.25;;;2.90;96.00;;;;;;5001934;28;37772;-59
2021/12/03 06:14:07;;;;;;;12.50;8.77;;;2.90;96.10;;;;;;5003370;28;39573;-58
2021/12/03 06:16:34;;;;;;;15.43;9.25;;;3.00;96.10;;;;;;5003708;28;38739;-58
2021/12/03 06:19:02;;;;;;;14.68;8.50;;;3.00;96.00;;;;;;5003741;28;36503;-58
2021/12/03 06:21:30;;;;;;;19.88;8.82;;;3.00;96.00;;;;;;5004491;28;36374;-58
2021/12/03 06:23:58;;;;;;;15.50;8.93;;;3.00;96.00;;;;;;5002903;28;36851;-58
2021/12/03 06:26:25;;;;;;;14.10;9.15;;;3.00;96.00;;;;;;5004269;28;38257;-58
2021/12/03 06:28:53;;;;;;;17.35;9.82;;;3.00;96.10;;;;;;5003280;28;36192;-55
2021/12/03 06:31:20;;;;;;;13.93;8.60;;;3.00;96.20;;;;;;5003946;28;41360;-54
2021/12/03 06:33:47;;;;;;;19.58;9.68;;;3.00;96.10;;;;;;5004083;28;39143;-55
2021/12/03 06:36:15;;;;;;;19.50;10.57;;;3.00;96.10;;;;;;5002894;28;37489;-55
2021/12/03 06:38:43;;;;;;;15.50;9.32;;;3.10;96.10;;;;;;5003685;28;36151;-55
2021/12/03 06:41:11;;;;;;;15.95;9.45;;;3.10;96.10;;;;;;5003214;28;37494;-55
2021/12/03 06:43:38;;;;;;;16.10;9.75;;;3.20;96.30;;;;;;5004024;28;38994;-56
2021/12/03 06:46:06;;;;;;;13.88;9.32;;;3.10;96.40;;;;;;5002404;28;36458;-55
2021/12/03 06:48:33;;;;;;;15.65;9.38;;;3.20;96.60;;;;;;5002961;28;35939;-55
2021/12/03 06:51:00;;;;;;;14.52;9.15;;;3.20;96.50;;;;;;5003349;28;36735;-55
2021/12/03 06:53:37;;;;;;;16.52;9.00;;;3.30;96.60;;;;;;5002156;28;38570;-55
2021/12/03 06:56:09;;;;;;;12.73;8.00;;;3.30;96.60;;;;;;5002936;28;36552;-55
2021/12/03 06:58:36;;;;;;;15.30;8.48;;;3.30;96.60;;;;;;5003051;28;35169;-55
2021/12/03 07:01:04;;;;;;;15.20;8.00;;;3.30;96.70;;;;;;5002591;28;38564;-55
2021/12/03 07:03:34;;;;;;;14.43;7.78;;;3.30;96.60;;;;;;5001291;28;37619;-55
2021/12/03 07:06:01;;;;;;;13.93;8.27;;;3.30;96.60;;;;;;5001684;28;40102;-59
2021/12/03 07:08:28;;;;;;;14.23;7.45;;;3.30;96.60;;;;;;5001504;28;37436;-58
2021/12/03 07:10:56;;;;;;;13.15;7.55;;;3.40;96.70;;;;;;5000863;28;37349;-58
2021/12/03 07:13:26;;;;;;;13.05;6.40;;;3.40;96.70;;;;;;4998267;28;38778;-59
2021/12/03 07:15:53;;;;;;;13.30;6.65;;;3.40;96.80;;;;;;4999684;28;37504;-58
2021/12/03 07:18:20;;;;;;;10.10;6.25;;;3.40;96.80;;;;;;4999104;28;37942;-59
2021/12/03 07:20:48;;;;;;;15.65;6.13;;;4.00;96.90;;;;;;5000565;28;38509;-55
2021/12/03 07:23:15;;;;;;;8.70;5.30;;;3.50;96.70;;;;;;5000331;28;36909;-55
2021/12/03 07:25:42;;;;;;;9.10;5.57;;;3.50;96.80;;;;;;4998864;28;37593;-55
2021/12/03 07:28:10;;;;;;;10.38;5.03;;;3.60;96.70;;;;;;5000743;28;37364;-55
2021/12/03 07:30:39;;;;;;;13.93;5.35;;;3.50;96.70;;;;;;4999381;28;38296;-55
2021/12/03 07:33:10;;;;;;;10.48;4.88;;;3.60;96.70;;;;;;4998428;28;37067;-55
2021/12/03 07:35:37;;;;;;;11.70;5.15;;;3.60;96.70;;;;;;4999122;28;37336;-55
2021/12/03 07:38:04;;;;;;;12.15;4.82;;;3.60;96.60;;;;;;4994910;28;37270;-58
2021/12/03 07:40:32;;;;;;;12.38;4.13;;;3.60;96.80;;;;;;4998867;28;36198;-59
2021/12/03 07:42:59;;;;;;;12.75;5.00;;;3.60;96.70;;;;;;4999963;28;39142;-58
2021/12/03 07:45:26;;;;;;;8.70;4.25;;;3.60;96.90;;;;;;4998769;28;38056;-58
2021/12/03 07:47:55;;;;;;;13.50;4.70;;;3.60;96.80;;;;;;5000276;28;36245;-58
2021/12/03 07:50:22;;;;;;;6.85;3.63;;;3.60;96.90;;;;;;4999223;28;39392;-59
2021/12/03 07:52:50;;;;;;;9.48;2.85;;;3.70;96.90;;;;;;4999605;28;38215;-58
2021/12/03 07:55:17;;;;;;;11.45;3.65;;;3.60;96.90;;;;;;4998470;28;37677;-58
2021/12/03 07:57:44;;;;;;;7.90;3.33;;;3.60;96.80;;;;;;4998740;28;38794;-58
2021/12/03 08:00:12;;;;;;;12.20;3.45;;;3.60;96.90;;;;;;4999703;28;37587;-59
2021/12/03 08:02:40;;;;;;;12.70;3.42;;;3.70;96.90;;;;;;4999674;28;38274;-58
2021/12/03 08:05:09;;;;;;;7.43;3.00;;;3.70;96.80;;;;;;4999830;28;38680;-58
2021/12/03 08:07:36;;;;;;;5.80;2.42;;;3.70;96.90;;;;;;4999788;28;35561;-59
2021/12/03 08:10:05;;;;;;;7.82;2.75;;;3.80;96.90;;;;;;4999616;28;38030;-58
2021/12/03 08:12:32;;;;;;;5.40;2.35;;;3.80;96.90;;;;;;5000512;28;39031;-58
2021/12/03 08:15:00;;;;;;;7.32;2.72;;;3.80;96.90;;;;;;4999546;28;37927;-59
2021/12/03 08:17:27;;;;;;;8.70;2.60;;;3.80;96.90;;;;;;5000146;28;35167;-58
2021/12/03 08:19:54;;;;;;;12.82;2.85;;;3.80;96.90;;;;;;4998643;28;37563;-58
2021/12/03 08:22:23;;;;;;;5.43;2.17;;;3.80;96.90;;;;;;4999017;28;39189;-58
2021/12/03 08:24:50;;;;;;;10.70;3.20;;;3.90;96.80;;;;;;4999154;28;38451;-59
2021/12/03 08:27:18;;;;;;;10.38;2.58;;;3.90;96.80;;;;;;4999492;28;35154;-58
2021/12/03 08:29:45;;;;;;;7.22;2.67;;;4.00;96.80;;;;;;4999578;28;38990;-55
2021/12/03 08:32:13;;;;;;;6.35;2.38;;;4.00;96.80;;;;;;4999163;28;39330;-55
2021/12/03 08:34:41;;;;;;;11.30;3.45;;;4.00;96.80;;;;;;5000922;28;36601;-55
2021/12/03 08:37:09;;;;;;;10.52;2.70;;;4.00;96.60;;;;;;4998932;28;36056;-55
2021/12/03 08:39:39;;;;;;;9.23;3.20;;;4.40;96.80;;;;;;4999838;28;37150;-55
2021/12/03 08:42:08;;;;;;;9.30;3.67;;;4.10;96.70;;;;;;4999273;28;36894;-55
2021/12/03 08:44:35;;;;;;;8.27;3.20;;;4.10;96.70;;;;;;4999958;28;38224;-55
2021/12/03 08:47:04;;;;;;;9.43;3.10;;;4.10;96.60;;;;;;4999509;28;35662;-55
2021/12/03 08:49:36;;;;;;;8.52;3.15;;;4.20;96.70;;;;;;4996673;28;36145;-55
2021/12/03 08:52:24;;;;;;;12.93;4.32;;;4.20;96.60;;;;;;5000132;28;38513;-55
2021/12/03 08:54:53;;;;;;;10.18;3.65;;;4.20;96.60;;;;;;4998746;28;38693;-54
2021/12/03 08:57:22;;;;;;;11.20;3.63;;;4.20;96.60;;;;;;4998835;28;37445;-55
2021/12/03 08:59:54;;;;;;;12.10;4.30;;;4.20;96.50;;;;;;4999354;28;40115;-55
2021/12/03 09:02:22;;;;;;;11.98;4.40;;;4.20;96.50;;;;;;4998561;28;39280;-55
2021/12/03 09:04:50;;;;;;;13.70;4.28;;;4.30;96.50;;;;;;4999728;28;36460;-55
2021/12/03 09:07:18;;;;;;;18.17;4.80;;;4.30;96.50;;;;;;4998392;28;36971;-55
2021/12/03 09:09:46;;;;;;;11.40;4.72;;;4.30;96.60;;;;;;5001376;28;37376;-55
2021/12/03 09:12:15;;;;;;;13.85;4.70;;;4.20;96.60;;;;;;5002623;28;38154;-55
2021/12/03 09:14:44;;;;;;;10.57;4.90;;;4.30;96.60;;;;;;5001694;28;38543;-55
2021/12/03 09:17:26;;;;;;;16.90;5.40;;;4.30;96.60;;;;;;5000784;28;36455;-55
2021/12/03 09:19:58;;;;;;;12.57;5.38;;;4.30;96.70;;;;;;5001660;28;39468;-55
2021/12/03 09:22:34;;;;;;;14.57;5.75;;;4.40;96.60;;;;;;5002786;28;38350;-56
2021/12/03 09:25:02;;;;;;;10.82;5.50;;;4.40;96.60;;;;;;5001016;28;37765;-55
2021/12/03 09:27:30;;;;;;;12.93;6.13;;;4.40;96.60;;;;;;5002931;28;37571;-56
2021/12/03 09:29:58;;;;;;;12.70;6.45;;;4.40;96.60;;;;;;5001289;28;38627;-55
2021/12/03 09:32:29;;;;;;;14.45;5.43;;;4.40;96.60;;;;;;5001834;28;39409;-55
2021/12/03 09:34:56;;;;;;;13.05;5.70;;;4.50;96.60;;;;;;5000843;28;37993;-55
2021/12/03 09:37:24;;;;;;;12.70;5.80;;;4.50;96.60;;;;;;5002771;28;36126;-55
2021/12/03 09:39:52;;;;;;;15.20;6.80;;;4.50;96.50;;;;;;5001308;28;38597;-55
2021/12/03 09:42:20;;;;;;;12.18;6.50;;;4.60;96.50;;;;;;5000921;28;40024;-55
2021/12/03 09:44:51;;;;;;;17.40;7.72;;;4.60;96.50;;;;;;5001996;28;38338;-55
2021/12/03 09:47:19;;;;;;;19.45;7.53;;;4.60;96.60;;;;;;5001425;28;35142;-55
2021/12/03 09:49:53;;;;;;;12.90;7.70;;;4.60;96.40;;;;;;5002149;28;36370;-55
2021/12/03 09:52:27;;;;;;;15.85;7.35;;;4.60;96.50;;;;;;5002068;28;38229;-55
2021/12/03 09:54:58;;;;;;;16.50;6.55;;;4.70;96.60;;;;;;5000840;28;37961;-55
2021/12/03 09:57:32;;;;;;;13.32;6.78;;;4.70;96.40;;;;;;5001068;28;36478;-54
2021/12/03 10:14:35;;;;;;;13.85;5.72;;;4.80;96.30;;;;;;4948439;28;39716;-55
2021/12/03 10:20:08;;;;;;;17.92;6.60;;;4.80;96.00;;;;;;5000611;28;38603;-55
2021/12/03 10:36:53;;;;;;;15.45;5.60;;;4.90;95.40;;;;;;4967617;28;38621;-55
2021/12/03 10:39:35;;;;;;;17.25;5.72;;;4.90;95.20;;;;;;4999628;28;38558;-56
2021/12/03 10:42:13;;;;;;;18.55;6.45;;;5.00;95.20;;;;;;5001910;28;36138;-55
2021/12/03 10:45:02;;;;;;;16.27;5.85;;;4.90;95.20;;;;;;4999913;28;38308;-55
2021/12/03 10:47:39;;;;;;;14.80;5.30;;;4.90;94.90;;;;;;4998577;28;37947;-56
2021/12/03 10:50:25;;;;;;;14.13;5.50;;;4.90;94.90;;;;;;4999532;28;37932;-56
2021/12/03 10:53:07;;;;;;;16.85;4.82;;;4.90;94.80;;;;;;5000897;28;36390;-55
2021/12/03 11:29:37;;;;;;;11.32;3.85;;;4.80;94.60;;;;;;4999764;28;39282;-55
2021/12/03 11:58:41;;;;;;;10.75;3.53;;;4.70;95.00;;;;;;5000222;28;36678;-55
2021/12/03 12:44:50;;;;;;;13.70;4.13;;;4.60;94.50;;;;;;4956881;28;40244;-55
2021/12/03 13:10:55;;;;;;;11.40;4.55;;;4.50;96.40;;;;;;4936982;28;37694;-55
2021/12/03 14:05:21;;;;;;;14.15;4.10;;;4.80;95.30;;;;;;4987865;28;38323;-55
2021/12/03 14:08:24;;;;;;;11.35;3.50;;;4.80;95.20;;;;;;5000945;28;36157;-55
2021/12/03 14:36:51;;;;;;;8.60;3.88;;;5.00;94.40;;;;;;5003009;28;38096;-55
2021/12/03 14:45:08;;;;;;;9.18;3.42;;;5.00;94.30;;;;;;4994425;28;37866;-55
2021/12/03 14:56:21;;;;;;;7.75;3.42;;;5.00;94.30;;;;;;4925511;28;39016;-55
2021/12/03 14:59:07;;;;;;;10.90;3.67;;;5.10;94.30;;;;;;4926277;28;36859;-55
2021/12/03 15:01:43;;;;;;;8.48;3.30;;;5.10;94.50;;;;;;4970190;28;38138;-55
2021/12/03 15:07:10;;;;;;;7.75;3.63;;;5.10;94.60;;;;;;4995274;28;39421;-55
2021/12/03 15:09:39;;;;;;;10.77;3.65;;;5.00;94.70;;;;;;5000818;28;37446;-55
2021/12/03 15:12:37;;;;;;;12.95;3.95;;;5.10;95.00;;;;;;5000477;28;36540;-55
2021/12/03 15:21:10;;;;;;;8.15;3.90;;;5.30;95.30;;;;;;5000261;28;39664;-55
2021/12/03 15:27:00;;;;;;;12.52;4.07;;;5.10;95.80;;;;;;4983743;28;36634;-56
2021/12/03 15:32:11;;;;;;;9.80;4.93;;;5.10;96.00;;;;;;4994007;28;38653;-55
2021/12/03 15:34:49;;;;;;;12.23;4.45;;;5.10;96.30;;;;;;5000473;28;38812;-55
2021/12/03 15:57:14;;;;;;;13.73;6.25;;;5.00;97.20;;;;;;5000489;28;39964;-56
2021/12/03 16:05:25;;;;;;;9.45;5.68;;;5.00;97.70;;;;;;5000979;28;38856;-55
2021/12/03 16:08:05;;;;;;;10.52;6.45;;;5.00;97.70;;;;;;4999336;28;38594;-56
2021/12/03 16:10:41;;;;;;;11.82;6.95;;;5.00;97.90;;;;;;5000278;28;36568;-55
2021/12/03 16:13:20;;;;;;;8.93;5.95;;;5.10;98.10;;;;;;5003119;28;37611;-55
2021/12/03 16:27:00;;;;;;;11.32;7.10;;;5.00;98.30;;;;;;5003439;28;39702;-55
2021/12/03 16:51:32;;;;;;;9.77;8.23;;;5.10;98.60;;;;;;4997316;28;39960;-56
2021/12/03 16:54:05;;;;;;;11.07;8.43;;;5.10;98.50;;;;;;5000612;28;36727;-55
2021/12/03 16:56:33;;;;;;;9.70;7.65;;;5.10;98.70;;;;;;5002076;28;38629;-55
2021/12/03 16:59:00;;;;;;;11.05;8.32;;;5.00;98.70;;;;;;4997358;28;39352;-56
2021/12/03 17:01:37;;;;;;;11.77;8.35;;;5.10;98.90;;;;;;4994088;28;38442;-55
2021/12/03 17:04:15;;;;;;;10.68;8.73;;;5.10;98.80;;;;;;4995523;28;35221;-55
2021/12/03 17:12:42;;;;;;;10.85;8.45;;;5.00;98.90;;;;;;4995805;28;38850;-55
2021/12/03 17:48:54;;;;;;;12.65;9.98;;;5.10;99.40;;;;;;4995475;28;36724;-56
2021/12/03 17:51:41;;;;;;;11.52;10.23;;;5.10;99.40;;;;;;4998293;28;40683;-56
2021/12/03 17:54:24;;;;;;;14.13;10.13;;;5.00;99.50;;;;;;4996760;28;36788;-56
2021/12/03 17:56:54;;;;;;;12.90;10.73;;;5.00;99.40;;;;;;4998792;28;37665;-55
2021/12/03 17:59:24;;;;;;;13.23;10.80;;;5.10;99.60;;;;;;4998306;28;38707;-55
2021/12/03 18:01:56;;;;;;;12.45;10.00;;;5.10;99.50;;;;;;4996948;28;39993;-56
2021/12/03 18:04:35;;;;;;;14.90;11.68;;;5.10;99.60;;;;;;4997078;28;37135;-55
2021/12/03 18:07:11;;;;;;;16.80;11.82;;;5.10;99.60;;;;;;4995634;28;37623;-55
2021/12/03 18:10:02;;;;;;;14.57;11.93;;;5.10;99.70;;;;;;4998120;28;35583;-55
2021/12/03 18:48:27;;;;;;;19.05;14.90;;;5.30;99.90;;;;;;4977744;28;39284;-56
2021/12/03 18:51:11;;;;;;;19.85;15.90;;;5.30;99.80;;;;;;4999845;28;38671;-56
2021/12/03 18:56:30;;;;;;;;;;;5.20;99.90;;;;;;4988906;28;37679;-59
2021/12/03 18:59:00;;;;;;;18.90;14.73;;;5.30;99.90;;;;;;4997881;28;37796;-59
2021/12/03 19:01:29;;;;;;;20.30;16.05;;;5.30;99.90;;;;;;4996924;28;38547;-59
2021/12/03 19:06:44;;;;;;;20.15;15.60;;;5.30;99.80;;;;;;4995737;28;39582;-60
2021/12/03 19:09:14;;;;;;;22.00;16.38;;;5.30;99.80;;;;;;4995880;28;38087;-60
2021/12/03 19:11:51;;;;;;;19.90;15.27;;;5.30;99.80;;;;;;4998352;28;39496;-59
2021/12/03 19:14:20;;;;;;;21.02;15.80;;;5.40;99.80;;;;;;4997935;28;36858;-55
2021/12/03 19:16:48;;;;;;;20.88;16.02;;;5.30;99.80;;;;;;4997837;28;39197;-56
2021/12/03 19:19:16;;;;;;;21.48;16.92;;;5.40;99.80;;;;;;4997032;28;38394;-56
2021/12/03 19:21:45;;;;;;;23.77;17.70;;;5.40;99.80;;;;;;4997729;28;37980;-55
2021/12/03 19:24:14;;;;;;;21.88;16.58;;;5.40;99.80;;;;;;4997603;28;37401;-55
2021/12/03 19:26:44;;;;;;;24.52;18.33;;;5.40;99.80;;;;;;4997197;28;38391;-55
2021/12/03 19:29:13;;;;;;;23.02;18.35;;;5.40;99.80;;;;;;4998323;28;37135;-55
2021/12/03 19:31:42;;;;;;;25.90;18.75;;;5.40;99.70;;;;;;4997715;28;39196;-56
2021/12/03 19:34:09;;;;;;;23.92;18.75;;;5.40;99.80;;;;;;4998053;28;36571;-55
2021/12/03 19:36:40;;;;;;;29.67;20.13;;;5.40;99.70;;;;;;4997518;28;37507;-55
2021/12/03 19:39:09;;;;;;;25.50;19.48;;;5.40;99.60;;;;;;4997960;28;37938;-55
2021/12/03 19:41:39;;;;;;;24.20;18.48;;;5.40;99.60;;;;;;4998828;28;36609;-56
2021/12/03 19:44:11;;;;;;;27.20;19.40;;;5.40;99.60;;;;;;4998853;28;36220;-55
2021/12/03 19:46:43;;;;;;;26.33;20.13;;;5.50;99.60;;;;;;4997964;28;38486;-56